createdAt,value
2023-05-30T00:01:01.346Z,68.50
2023-05-30T00:02:03.784Z,68.88
2023-05-30T00:03:06.104Z,69.73
2023-05-30T00:04:08.582Z,71.53
2023-05-30T00:05:11.858Z,72.65
2023-05-30T00:06:15.379Z,74.57
2023-05-30T00:07:18.610Z,71.87
2023-05-30T00:08:22.653Z,72.34
2023-05-30T00:09:25.855Z,73.06
2023-05-30T00:10:28.009Z,73.61
2023-05-30T00:11:31.066Z,72.26
2023-05-30T00:12:33.076Z,71.45
2023-05-30T00:13:35.174Z,72.64
2023-05-30T00:14:37.095Z,72.21
2023-05-30T00:15:38.995Z,73.19
2023-05-30T00:16:41.000Z,72.10
2023-05-30T00:17:42.939Z,71.62
2023-05-30T00:18:45.207Z,72.32
2023-05-30T00:19:47.383Z,73.06
2023-05-30T00:20:50.966Z,73.38
2023-05-30T00:21:52.995Z,73.59
2023-05-30T00:22:55.025Z,73.35
2023-05-30T00:23:56.951Z,74.11
2023-05-30T00:24:58.941Z,74.60
2023-05-30T00:26:01.177Z,74.44
2023-05-30T00:27:04.023Z,74.56
2023-05-30T00:28:06.105Z,74.31
2023-05-30T00:29:08.077Z,74.06
2023-05-30T00:30:12.572Z,74.37
2023-05-30T00:31:14.579Z,74.23
2023-05-30T00:32:16.832Z,73.47
2023-05-30T00:33:19.999Z,72.25
2023-05-30T00:34:21.902Z,72.18
2023-05-30T00:35:23.908Z,72.26
2023-05-30T00:36:25.874Z,72.09
2023-05-30T00:37:27.760Z,71.60
2023-05-30T00:38:29.732Z,71.66
2023-05-30T00:39:31.799Z,71.51
2023-05-30T00:40:33.806Z,71.73
2023-05-30T00:41:35.790Z,71.83
2023-05-30T00:42:37.762Z,71.39
2023-05-30T00:43:39.876Z,71.53
2023-05-30T00:44:41.918Z,71.35
2023-05-30T00:45:43.906Z,70.86
2023-05-30T00:46:46.246Z,70.77
2023-05-30T00:47:50.561Z,70.86
2023-05-30T00:48:53.069Z,71.51
2023-05-30T00:49:55.862Z,71.32
2023-05-30T00:50:59.085Z,71.71
2023-05-30T00:52:02.710Z,71.99
2023-05-30T00:53:06.110Z,72.26
2023-05-30T00:54:08.156Z,72.67
2023-05-30T00:55:10.074Z,72.72
2023-05-30T00:56:12.290Z,73.39
2023-05-30T00:57:17.654Z,73.58
2023-05-30T00:58:20.548Z,73.71
2023-05-30T00:59:22.996Z,74.07
2023-05-30T01:00:29.621Z,73.95
2023-05-30T01:01:32.098Z,73.08
2023-05-30T01:02:34.253Z,73.04
2023-05-30T01:03:37.346Z,72.84
2023-05-30T01:04:39.788Z,71.83
2023-05-30T01:05:44.447Z,71.31
2023-05-30T01:06:46.700Z,70.57
2023-05-30T01:07:48.646Z,70.02
2023-05-30T01:08:50.528Z,69.72
2023-05-30T01:09:52.733Z,70.22
2023-05-30T01:10:58.299Z,69.54
2023-05-30T01:12:31.772Z,69.11
2023-05-30T01:13:38.624Z,69.09
2023-05-30T01:14:53.569Z,69.94
2023-05-30T01:16:05.037Z,70.59
2023-05-30T01:17:10.857Z,72.00
2023-05-30T01:18:25.640Z,71.16
2023-05-30T01:19:31.442Z,71.06
2023-05-30T01:20:41.437Z,71.11
2023-05-30T01:21:44.837Z,70.53
2023-05-30T01:23:10.532Z,70.59
2023-05-30T01:25:50.234Z,71.65
2023-05-30T01:26:56.017Z,71.96
2023-05-30T01:28:11.135Z,71.12
2023-05-30T01:29:20.506Z,71.70
2023-05-30T01:30:24.837Z,71.05
2023-05-30T01:31:27.427Z,70.27
2023-05-30T01:32:30.015Z,70.15
2023-05-30T01:33:33.653Z,70.76
2023-05-30T01:34:35.760Z,71.69
2023-05-30T01:35:37.724Z,70.89
2023-05-30T01:36:39.915Z,70.85
2023-05-30T01:37:42.374Z,72.33
2023-05-30T01:38:44.260Z,72.36
2023-05-30T01:39:46.332Z,72.48
2023-05-30T01:40:51.843Z,72.11
2023-05-30T01:42:14.545Z,70.94
2023-05-30T01:43:26.599Z,69.36
2023-05-30T01:44:43.215Z,68.42
2023-05-30T01:46:10.365Z,68.53
2023-05-30T01:47:24.952Z,69.82
2023-05-30T01:48:36.574Z,68.95
2023-05-30T01:49:42.345Z,69.47
2023-05-30T01:50:48.158Z,70.16
2023-05-30T01:51:56.735Z,69.71
2023-05-30T01:53:00.894Z,69.65
2023-05-30T01:54:06.430Z,70.65
2023-05-30T01:55:10.665Z,70.35
2023-05-30T01:56:15.025Z,70.68
2023-05-30T01:57:18.701Z,69.99
2023-05-30T01:58:22.474Z,70.51
2023-05-30T01:59:27.222Z,70.35
2023-05-30T02:00:30.101Z,69.42
2023-05-30T02:01:33.089Z,69.22
2023-05-30T02:02:35.188Z,69.12
2023-05-30T02:03:37.331Z,68.02
2023-05-30T02:04:40.573Z,67.65
2023-05-30T02:05:42.574Z,67.48
2023-05-30T02:06:46.024Z,67.13
2023-05-30T02:07:48.724Z,66.31
2023-05-30T02:08:51.118Z,66.31
2023-05-30T02:09:53.109Z,66.39
2023-05-30T02:10:55.201Z,66.67
2023-05-30T02:11:57.400Z,67.68
2023-05-30T02:13:00.024Z,68.54
2023-05-30T02:14:02.118Z,70.78
2023-05-30T02:15:05.528Z,71.69
2023-05-30T02:16:09.233Z,71.29
2023-05-30T02:17:11.367Z,71.74
2023-05-30T02:18:13.349Z,72.19
2023-05-30T02:19:15.644Z,72.13
2023-05-30T02:20:17.974Z,73.06
2023-05-30T02:21:20.422Z,73.72
2023-05-30T02:22:22.461Z,75.10
2023-05-30T02:23:24.349Z,75.25
2023-05-30T02:24:26.365Z,75.11
2023-05-30T02:25:28.621Z,75.15
2023-05-30T02:26:30.727Z,75.06
2023-05-30T02:27:32.670Z,74.22
2023-05-30T02:28:34.574Z,73.49
2023-05-30T02:29:36.951Z,72.55
2023-05-30T02:30:39.277Z,70.76
2023-05-30T02:31:41.497Z,70.62
2023-05-30T02:32:44.726Z,70.28
2023-05-30T02:33:46.687Z,69.36
2023-05-30T02:34:48.683Z,69.51
2023-05-30T02:35:50.805Z,69.19
2023-05-30T02:36:54.939Z,69.60
2023-05-30T02:37:56.901Z,69.71
2023-05-30T02:39:06.798Z,69.72
2023-05-30T02:40:10.626Z,69.96
2023-05-30T02:41:12.645Z,70.33
2023-05-30T02:42:14.708Z,70.65
2023-05-30T02:43:20.923Z,70.73
2023-05-30T02:44:20.481Z,70.91
2023-05-30T02:45:22.508Z,71.08
2023-05-30T02:46:24.635Z,70.82
2023-05-30T02:47:26.635Z,70.64
2023-05-30T02:48:32.600Z,70.52
2023-05-30T02:49:34.846Z,70.49
2023-05-30T02:50:37.632Z,70.28
2023-05-30T02:51:42.083Z,70.04
2023-05-30T02:52:44.143Z,69.74
2023-05-30T02:53:46.149Z,69.37
2023-05-30T02:54:48.936Z,69.08
2023-05-30T02:55:50.831Z,68.42
2023-05-30T02:56:52.852Z,68.09
2023-05-30T02:57:54.756Z,67.87
2023-05-30T02:58:56.785Z,68.19
2023-05-30T02:59:58.921Z,69.15
2023-05-30T03:01:01.000Z,69.55
2023-05-30T03:02:05.174Z,69.10
2023-05-30T03:03:08.083Z,69.27
2023-05-30T03:04:10.251Z,69.48
2023-05-30T03:05:12.351Z,69.26
2023-05-30T03:06:14.603Z,69.18
2023-05-30T03:07:16.684Z,68.18
2023-05-30T03:08:26.141Z,68.05
2023-05-30T03:09:22.588Z,67.37
2023-05-30T03:10:24.820Z,67.10
2023-05-30T03:11:26.714Z,67.04
2023-05-30T03:12:28.637Z,66.92
2023-05-30T03:13:30.721Z,66.90
2023-05-30T03:14:32.742Z,66.27
2023-05-30T03:15:34.765Z,66.39
2023-05-30T03:16:36.899Z,65.80
2023-05-30T03:17:42.507Z,65.84
2023-05-30T03:18:44.618Z,65.37
2023-05-30T03:19:46.771Z,65.11
2023-05-30T03:20:49.069Z,64.63
2023-05-30T03:21:51.250Z,64.67
2023-05-30T03:22:53.365Z,64.91
2023-05-30T03:23:56.365Z,65.56
2023-05-30T03:24:58.928Z,65.74
2023-05-30T03:26:02.025Z,65.50
2023-05-30T03:27:04.369Z,65.83
2023-05-30T03:28:06.296Z,66.37
2023-05-30T03:29:08.411Z,66.60
2023-05-30T03:30:12.179Z,67.02
2023-05-30T03:31:14.146Z,66.21
2023-05-30T03:32:16.956Z,65.86
2023-05-30T03:33:18.960Z,66.05
2023-05-30T03:34:20.880Z,66.02
2023-05-30T03:35:22.962Z,65.88
2023-05-30T03:36:25.182Z,66.22
2023-05-30T03:37:27.190Z,65.74
2023-05-30T03:38:29.236Z,65.47
2023-05-30T03:39:31.220Z,65.19
2023-05-30T03:40:33.207Z,65.25
2023-05-30T03:41:35.088Z,65.09
2023-05-30T03:42:38.016Z,64.70
2023-05-30T03:43:40.909Z,64.17
2023-05-30T03:44:42.807Z,64.09
2023-05-30T03:45:44.745Z,64.09
2023-05-30T03:46:46.873Z,63.93
2023-05-30T03:47:48.922Z,63.85
2023-05-30T03:48:50.829Z,63.58
2023-05-30T03:49:54.189Z,63.39
2023-05-30T03:50:56.897Z,64.20
2023-05-30T03:51:59.044Z,63.75
2023-05-30T03:53:00.941Z,63.30
2023-05-30T03:54:04.261Z,62.99
2023-05-30T03:55:07.047Z,62.70
2023-05-30T03:56:09.761Z,62.31
2023-05-30T03:57:13.344Z,61.95
2023-05-30T03:58:15.242Z,61.73
2023-05-30T03:59:18.955Z,61.59
2023-05-30T04:00:20.968Z,61.41
2023-05-30T04:01:24.031Z,61.06
2023-05-30T04:02:26.133Z,60.52
2023-05-30T04:03:29.738Z,59.83
2023-05-30T04:04:31.908Z,59.20
2023-05-30T04:05:33.909Z,58.59
2023-05-30T04:06:37.186Z,57.63
2023-05-30T04:07:39.076Z,57.13
2023-05-30T04:08:41.080Z,58.50
2023-05-30T04:09:43.177Z,57.74
2023-05-30T04:10:45.175Z,56.98
2023-05-30T04:11:47.153Z,56.33
2023-05-30T04:12:49.040Z,55.79
2023-05-30T04:13:51.124Z,54.98
2023-05-30T04:14:52.998Z,54.71
2023-05-30T04:15:54.955Z,55.34
2023-05-30T04:16:57.187Z,54.68
2023-05-30T04:18:00.314Z,54.81
2023-05-30T04:19:02.479Z,54.79
2023-05-30T04:20:06.098Z,53.69
2023-05-30T04:21:08.128Z,52.93
2023-05-30T04:22:09.996Z,53.42
2023-05-30T04:23:12.119Z,52.92
2023-05-30T04:24:14.171Z,52.28
2023-05-30T04:25:16.496Z,51.55
2023-05-30T04:26:18.621Z,51.33
2023-05-30T04:27:20.682Z,50.55
2023-05-30T04:28:24.657Z,50.34
2023-05-30T04:29:26.611Z,49.61
2023-05-30T04:30:28.599Z,49.32
2023-05-30T04:31:30.656Z,50.39
2023-05-30T04:32:33.150Z,49.08
2023-05-30T04:33:37.456Z,49.06
2023-05-30T04:34:39.388Z,48.48
2023-05-30T04:35:41.276Z,48.04
2023-05-30T04:36:43.243Z,47.66
2023-05-30T04:37:45.259Z,45.48
2023-05-30T04:38:49.486Z,45.48
2023-05-30T04:39:51.532Z,46.08
2023-05-30T04:40:53.548Z,46.17
2023-05-30T04:41:55.434Z,46.89
2023-05-30T04:42:57.314Z,46.50
2023-05-30T04:43:59.654Z,46.29
2023-05-30T04:45:01.962Z,46.29
2023-05-30T04:46:11.085Z,45.50
2023-05-30T04:47:08.473Z,45.02
2023-05-30T04:48:10.530Z,44.05
2023-05-30T04:49:15.148Z,43.67
2023-05-30T04:50:17.719Z,44.33
2023-05-30T04:51:21.256Z,43.22
2023-05-30T04:52:23.303Z,43.54
2023-05-30T04:53:25.490Z,43.91
2023-05-30T04:54:27.483Z,44.33
2023-05-30T04:55:29.422Z,43.86
2023-05-30T04:56:31.547Z,43.80
2023-05-30T04:57:33.881Z,43.96
2023-05-30T04:58:35.790Z,43.49
2023-05-30T04:59:39.508Z,43.49
2023-05-30T05:00:42.011Z,42.93
2023-05-30T05:01:44.176Z,42.37
2023-05-30T05:02:46.412Z,41.92
2023-05-30T05:03:48.892Z,41.72
2023-05-30T05:04:50.984Z,42.08
2023-05-30T05:05:52.865Z,41.52
2023-05-30T05:06:54.998Z,41.88
2023-05-30T05:07:56.930Z,42.08
2023-05-30T05:09:00.698Z,42.49
2023-05-30T05:10:03.129Z,42.55
2023-05-30T05:11:06.669Z,42.27
2023-05-30T05:12:10.512Z,41.95
2023-05-30T05:13:12.662Z,42.26
2023-05-30T05:14:14.573Z,41.96
2023-05-30T05:15:16.483Z,41.69
2023-05-30T05:16:18.823Z,40.79
2023-05-30T05:17:21.160Z,41.60
2023-05-30T05:18:24.942Z,40.81
2023-05-30T05:19:26.994Z,40.67
2023-05-30T05:20:29.259Z,40.23
2023-05-30T05:21:31.330Z,40.83
2023-05-30T05:22:34.628Z,40.48
2023-05-30T05:23:36.554Z,40.21
2023-05-30T05:24:38.686Z,39.70
2023-05-30T05:25:41.352Z,39.78
2023-05-30T05:26:43.374Z,39.80
2023-05-30T05:27:45.555Z,39.20
2023-05-30T05:28:48.600Z,39.00
2023-05-30T05:29:50.572Z,38.35
2023-05-30T05:30:52.567Z,39.42
2023-05-30T05:31:55.667Z,38.91
2023-05-30T05:32:57.809Z,39.04
2023-05-30T05:34:00.022Z,38.93
2023-05-30T05:35:03.622Z,38.81
2023-05-30T05:36:06.677Z,38.82
2023-05-30T05:37:09.209Z,39.03
2023-05-30T05:38:11.137Z,38.84
2023-05-30T05:39:13.126Z,38.00
2023-05-30T05:40:15.422Z,38.77
2023-05-30T05:41:17.417Z,37.83
2023-05-30T05:42:19.342Z,38.10
2023-05-30T05:43:21.232Z,37.77
2023-05-30T05:44:24.593Z,37.64
2023-05-30T05:45:26.911Z,38.02
2023-05-30T05:46:28.953Z,38.54
2023-05-30T05:47:31.163Z,38.36
2023-05-30T05:48:33.443Z,37.67
2023-05-30T05:49:35.464Z,37.87
2023-05-30T05:50:37.566Z,38.18
2023-05-30T05:51:39.475Z,37.89
2023-05-30T05:52:41.530Z,37.73
2023-05-30T05:53:43.755Z,37.95
2023-05-30T05:54:45.636Z,38.01
2023-05-30T05:55:47.667Z,38.43
2023-05-30T05:56:49.722Z,37.85
2023-05-30T05:57:52.032Z,37.87
2023-05-30T05:58:54.539Z,38.18
2023-05-30T05:59:56.448Z,37.80
2023-05-30T06:00:58.794Z,37.14
2023-05-30T06:02:01.062Z,37.69
2023-05-30T06:03:06.103Z,38.61
2023-05-30T06:04:11.098Z,38.03
2023-05-30T06:05:13.274Z,37.40
2023-05-30T06:06:15.686Z,36.86
2023-05-30T06:07:19.380Z,36.39
2023-05-30T06:08:21.297Z,36.50
2023-05-30T06:09:23.207Z,36.51
2023-05-30T06:10:25.828Z,35.84
2023-05-30T06:11:27.826Z,36.07
2023-05-30T06:12:29.844Z,35.84
2023-05-30T06:13:31.857Z,35.85
2023-05-30T06:14:33.849Z,36.64
2023-05-30T06:15:35.767Z,37.15
2023-05-30T06:16:37.882Z,36.18
2023-05-30T06:17:39.986Z,37.11
2023-05-30T06:18:42.701Z,36.52
2023-05-30T06:19:45.157Z,36.21
2023-05-30T06:20:48.919Z,36.44
2023-05-30T06:21:51.125Z,36.56
2023-05-30T06:22:53.079Z,36.21
2023-05-30T06:23:55.090Z,35.71
2023-05-30T06:24:57.109Z,35.30
2023-05-30T06:25:59.000Z,36.19
2023-05-30T06:27:01.188Z,36.19
2023-05-30T06:28:04.129Z,35.98
2023-05-30T06:29:06.250Z,35.85
2023-05-30T06:30:09.442Z,35.55
2023-05-30T06:31:11.428Z,35.01
2023-05-30T06:32:16.580Z,34.85
2023-05-30T06:33:17.335Z,34.72
2023-05-30T06:34:19.371Z,34.93
2023-05-30T06:35:21.270Z,34.95
2023-05-30T06:36:23.416Z,34.71
2023-05-30T06:37:25.319Z,35.48
2023-05-30T06:38:27.323Z,35.72
2023-05-30T06:39:29.240Z,35.58
2023-05-30T06:40:31.399Z,35.19
2023-05-30T06:41:35.954Z,35.07
2023-05-30T06:42:37.891Z,35.36
2023-05-30T06:43:39.783Z,35.53
2023-05-30T06:44:42.376Z,35.06
2023-05-30T06:45:44.462Z,34.64
2023-05-30T06:46:46.598Z,35.00
2023-05-30T06:47:48.546Z,34.28
2023-05-30T06:48:50.514Z,34.28
2023-05-30T06:49:52.534Z,34.67
2023-05-30T06:50:56.960Z,34.97
2023-05-30T06:51:58.416Z,35.38
2023-05-30T06:53:00.533Z,35.72
2023-05-30T06:54:03.064Z,35.09
2023-05-30T06:55:06.091Z,35.67
2023-05-30T06:56:08.306Z,34.83
2023-05-30T06:57:10.189Z,35.01
2023-05-30T06:58:13.196Z,34.46
2023-05-30T06:59:15.097Z,34.05
2023-05-30T07:00:18.294Z,33.87
2023-05-30T07:01:20.494Z,33.84
2023-05-30T07:02:22.467Z,33.92
2023-05-30T07:03:24.498Z,34.21
2023-05-30T07:04:26.608Z,33.99
2023-05-30T07:05:29.779Z,34.04
2023-05-30T07:06:32.250Z,33.94
2023-05-30T07:07:36.665Z,33.21
2023-05-30T07:08:39.186Z,33.02
2023-05-30T07:09:41.221Z,33.23
2023-05-30T07:10:43.309Z,33.21
2023-05-30T07:11:48.696Z,33.90
2023-05-30T07:12:50.637Z,34.25
2023-05-30T07:13:53.067Z,33.34
2023-05-30T07:14:55.128Z,33.09
2023-05-30T07:15:57.206Z,32.61
2023-05-30T07:16:59.381Z,32.53
2023-05-30T07:18:01.786Z,32.37
2023-05-30T07:19:12.148Z,32.87
2023-05-30T07:20:09.322Z,34.12
2023-05-30T07:21:11.325Z,34.09
2023-05-30T07:22:13.333Z,34.22
2023-05-30T07:23:15.546Z,33.48
2023-05-30T07:24:17.465Z,33.85
2023-05-30T07:25:19.443Z,33.29
2023-05-30T07:26:22.471Z,32.10
2023-05-30T07:27:24.608Z,32.48
2023-05-30T07:28:26.700Z,32.09
2023-05-30T07:29:28.770Z,32.91
2023-05-30T07:30:31.328Z,33.37
2023-05-30T07:31:33.556Z,33.86
2023-05-30T07:32:35.784Z,33.74
2023-05-30T07:33:37.777Z,34.36
2023-05-30T07:34:41.577Z,33.42
2023-05-30T07:35:45.581Z,34.21
2023-05-30T07:36:47.631Z,34.21
2023-05-30T07:37:51.349Z,33.84
2023-05-30T07:38:53.296Z,33.73
2023-05-30T07:39:55.311Z,33.95
2023-05-30T07:40:57.583Z,33.99
2023-05-30T07:41:59.750Z,33.41
2023-05-30T07:43:01.859Z,33.32
2023-05-30T07:44:03.917Z,32.57
2023-05-30T07:45:07.223Z,32.82
2023-05-30T07:46:09.643Z,33.61
2023-05-30T07:47:11.590Z,33.62
2023-05-30T07:48:13.492Z,32.37
2023-05-30T07:49:15.540Z,33.22
2023-05-30T07:50:17.564Z,33.40
2023-05-30T07:51:19.826Z,33.17
2023-05-30T07:52:22.218Z,33.36
2023-05-30T07:53:24.346Z,33.47
2023-05-30T07:54:26.479Z,33.38
2023-05-30T07:55:28.669Z,33.20
2023-05-30T07:56:30.907Z,32.97
2023-05-30T07:57:33.200Z,32.88
2023-05-30T07:58:35.438Z,33.76
2023-05-30T07:59:37.449Z,33.50
2023-05-30T08:00:39.760Z,33.66
2023-05-30T08:01:41.755Z,33.07
2023-05-30T08:02:43.801Z,32.98
2023-05-30T08:03:45.878Z,32.68
2023-05-30T08:04:48.015Z,32.54
2023-05-30T08:05:50.270Z,31.85
2023-05-30T08:06:53.428Z,31.86
2023-05-30T08:07:55.453Z,31.45
2023-05-30T08:08:57.437Z,31.33
2023-05-30T08:09:59.416Z,31.32
2023-05-30T08:11:01.610Z,31.19
2023-05-30T08:12:05.064Z,31.74
2023-05-30T08:13:06.983Z,31.71
2023-05-30T08:14:09.001Z,31.50
2023-05-30T08:15:10.995Z,32.33
2023-05-30T08:16:14.191Z,32.85
2023-05-30T08:17:16.833Z,32.52
2023-05-30T08:18:19.485Z,31.85
2023-05-30T08:19:21.672Z,32.52
2023-05-30T08:20:23.807Z,32.52
2023-05-30T08:21:25.780Z,33.67
2023-05-30T08:22:27.708Z,32.78
2023-05-30T08:23:29.876Z,33.00
2023-05-30T08:24:31.869Z,32.20
2023-05-30T08:25:33.808Z,31.96
2023-05-30T08:26:35.947Z,32.60
2023-05-30T08:27:37.983Z,32.48
2023-05-30T08:28:39.862Z,32.73
2023-05-30T08:29:41.735Z,32.87
2023-05-30T08:30:46.889Z,31.89
2023-05-30T08:31:49.048Z,31.86
2023-05-30T08:32:53.258Z,32.20
2023-05-30T08:33:55.282Z,31.56
2023-05-30T08:34:57.268Z,31.27
2023-05-30T08:35:59.198Z,30.81
2023-05-30T08:37:01.724Z,31.05
2023-05-30T08:38:03.636Z,31.99
2023-05-30T08:39:15.180Z,32.31
2023-05-30T08:40:12.844Z,32.08
2023-05-30T08:41:14.892Z,32.17
2023-05-30T08:42:17.070Z,32.49
2023-05-30T08:43:19.858Z,32.54
2023-05-30T08:44:23.093Z,32.79
2023-05-30T08:45:25.701Z,32.46
2023-05-30T08:46:29.160Z,32.28
2023-05-30T08:47:32.194Z,31.67
2023-05-30T08:48:35.355Z,31.99
2023-05-30T08:49:39.581Z,33.04
2023-05-30T08:50:42.334Z,32.45
2023-05-30T08:51:44.450Z,32.34
2023-05-30T08:52:50.188Z,32.42
2023-05-30T08:53:58.938Z,31.83
2023-05-30T08:55:16.757Z,32.05
2023-05-30T08:57:43.930Z,31.56
2023-05-30T08:58:48.426Z,31.41
2023-05-30T08:59:53.327Z,31.60
2023-05-30T09:00:57.621Z,31.79
2023-05-30T09:02:00.994Z,32.50
2023-05-30T09:03:05.756Z,32.85
2023-05-30T09:04:09.088Z,32.08
2023-05-30T09:05:13.157Z,31.76
2023-05-30T09:06:18.236Z,31.39
2023-05-30T09:07:21.993Z,31.06
2023-05-30T09:08:27.406Z,32.04
2023-05-30T09:09:33.129Z,31.52
2023-05-30T09:10:38.762Z,31.45
2023-05-30T09:11:43.939Z,31.16
2023-05-30T09:12:46.120Z,31.40
2023-05-30T09:13:48.287Z,31.39
2023-05-30T09:14:50.170Z,31.43
2023-05-30T09:15:52.452Z,31.52
2023-05-30T09:16:55.945Z,31.32
2023-05-30T09:17:58.100Z,31.53
2023-05-30T09:19:03.473Z,31.81
2023-05-30T09:20:06.436Z,31.74
2023-05-30T09:21:09.634Z,30.50
2023-05-30T09:22:11.958Z,31.06
2023-05-30T09:23:14.239Z,30.63
2023-05-30T09:24:16.700Z,30.41
2023-05-30T09:25:19.153Z,30.86
2023-05-30T09:26:21.373Z,30.78
2023-05-30T09:27:23.947Z,31.04
2023-05-30T09:28:27.748Z,30.43
2023-05-30T09:29:29.748Z,30.78
2023-05-30T09:30:31.952Z,31.64
2023-05-30T09:31:37.919Z,31.40
2023-05-30T09:32:40.161Z,30.75
2023-05-30T09:33:48.009Z,31.28
2023-05-30T09:34:57.062Z,31.62
2023-05-30T09:35:59.189Z,31.39
2023-05-30T09:37:04.225Z,31.62
2023-05-30T09:38:06.177Z,32.25
2023-05-30T09:39:08.263Z,32.17
2023-05-30T09:40:14.756Z,32.08
2023-05-30T09:41:16.697Z,32.11
2023-05-30T09:42:18.621Z,32.25
2023-05-30T09:43:30.900Z,32.38
2023-05-30T09:44:32.825Z,32.33
2023-05-30T09:45:34.720Z,32.02
2023-05-30T09:46:38.177Z,32.27
2023-05-30T09:48:57.122Z,31.52
2023-05-30T09:49:59.038Z,31.43
2023-05-30T09:51:02.339Z,31.54
2023-05-30T09:52:05.213Z,30.95
2023-05-30T09:53:08.248Z,30.81
2023-05-30T09:54:10.288Z,31.48
2023-05-30T09:55:16.484Z,31.00
2023-05-30T09:56:18.896Z,31.24
2023-05-30T09:57:22.111Z,31.15
2023-05-30T09:58:24.718Z,31.16
2023-05-30T09:59:26.661Z,30.69
2023-05-30T10:00:29.668Z,30.22
2023-05-30T10:01:46.465Z,30.54
2023-05-30T10:02:53.889Z,30.74
2023-05-30T10:03:56.373Z,31.23
2023-05-30T10:04:58.498Z,31.79
2023-05-30T10:06:05.372Z,31.94
2023-05-30T10:07:07.439Z,31.66
2023-05-30T10:08:11.175Z,31.68
2023-05-30T10:09:15.109Z,31.15
2023-05-30T10:10:18.771Z,31.24
2023-05-30T10:11:20.988Z,31.25
2023-05-30T10:12:25.216Z,31.24
2023-05-30T10:13:27.124Z,31.42
2023-05-30T10:14:29.141Z,31.46
2023-05-30T10:15:31.652Z,31.39
2023-05-30T10:16:35.572Z,30.83
2023-05-30T10:17:41.372Z,30.08
2023-05-30T10:18:52.956Z,30.36
2023-05-30T10:20:03.582Z,30.61
2023-05-30T10:21:08.054Z,30.92
2023-05-30T10:22:14.494Z,31.21
2023-05-30T10:23:17.332Z,31.17
2023-05-30T10:24:21.067Z,31.22
2023-05-30T10:25:26.838Z,30.90
2023-05-30T10:27:51.624Z,31.00
2023-05-30T10:28:55.296Z,31.15
2023-05-30T10:30:05.918Z,31.33
2023-05-30T10:31:10.376Z,30.90
2023-05-30T10:32:15.793Z,30.93
2023-05-30T10:33:30.133Z,30.61
2023-05-30T10:34:28.313Z,30.49
2023-05-30T10:35:32.868Z,30.43
2023-05-30T10:36:35.201Z,30.14
2023-05-30T10:37:38.224Z,29.94
2023-05-30T10:40:22.536Z,30.56
2023-05-30T10:41:31.313Z,30.68
2023-05-30T10:42:55.114Z,31.22
2023-05-30T10:44:12.335Z,31.52
2023-05-30T10:45:17.569Z,31.08
2023-05-30T10:46:51.900Z,30.96
2023-05-30T10:48:01.430Z,31.29
2023-05-30T10:49:07.281Z,30.81
2023-05-30T10:50:16.787Z,30.95
2023-05-30T10:51:20.372Z,31.27
2023-05-30T10:52:33.247Z,31.51
2023-05-30T10:53:44.762Z,31.73
2023-05-30T10:54:47.518Z,31.98
2023-05-30T10:55:49.807Z,31.88
2023-05-30T10:56:51.933Z,31.75
2023-05-30T10:57:54.013Z,31.46
2023-05-30T10:58:56.311Z,31.46
2023-05-30T11:00:05.050Z,31.04
2023-05-30T11:01:30.531Z,31.32
2023-05-30T11:02:39.668Z,31.00
2023-05-30T11:03:45.744Z,32.06
2023-05-30T11:04:50.990Z,32.81
2023-05-30T11:05:55.391Z,32.53
2023-05-30T11:06:57.523Z,31.28
2023-05-30T11:08:01.634Z,30.88
2023-05-30T11:09:14.807Z,31.30
2023-05-30T11:10:25.608Z,31.10
2023-05-30T11:11:31.276Z,31.09
2023-05-30T11:12:35.738Z,31.17
2023-05-30T11:13:41.418Z,31.38
2023-05-30T11:14:47.124Z,31.41
2023-05-30T11:15:52.302Z,31.49
2023-05-30T11:17:07.406Z,31.35
2023-05-30T11:18:17.353Z,31.85
2023-05-30T11:19:19.363Z,31.33
2023-05-30T11:20:22.487Z,31.55
2023-05-30T11:21:57.818Z,31.70
2023-05-30T11:23:06.336Z,31.38
2023-05-30T11:24:08.477Z,30.74
2023-05-30T11:27:05.083Z,30.24
2023-05-30T11:28:10.767Z,29.97
2023-05-30T11:29:36.657Z,30.33
2023-05-30T11:30:47.868Z,30.48
2023-05-30T11:33:12.141Z,31.39
2023-05-30T11:34:14.772Z,31.59
2023-05-30T11:35:17.804Z,32.05
2023-05-30T11:36:23.196Z,32.50
2023-05-30T11:37:25.987Z,32.20
2023-05-30T11:38:28.044Z,32.26
2023-05-30T11:39:32.566Z,32.79
2023-05-30T11:40:34.606Z,32.34
2023-05-30T11:41:36.808Z,32.10
2023-05-30T11:42:38.944Z,31.71
2023-05-30T11:43:45.724Z,31.31
2023-05-30T11:44:48.367Z,31.11
2023-05-30T11:45:53.743Z,31.38
2023-05-30T11:47:12.788Z,31.22
2023-05-30T11:48:11.333Z,31.55
2023-05-30T11:49:13.428Z,31.94
2023-05-30T11:50:15.736Z,32.05
2023-05-30T11:51:17.855Z,32.59
2023-05-30T11:52:19.788Z,32.34
2023-05-30T11:53:21.769Z,32.83
2023-05-30T11:54:24.861Z,32.77
2023-05-30T11:55:26.824Z,32.00
2023-05-30T11:56:31.822Z,31.50
2023-05-30T11:57:34.212Z,31.01
2023-05-30T11:58:36.189Z,31.39
2023-05-30T11:59:41.375Z,31.08
2023-05-30T12:00:44.728Z,30.59
2023-05-30T12:01:57.565Z,30.37
2023-05-30T12:02:59.969Z,30.47
2023-05-30T12:04:04.642Z,30.50
2023-05-30T12:05:07.290Z,31.43
2023-05-30T12:06:12.908Z,31.95
2023-05-30T12:07:15.055Z,32.71
2023-05-30T12:08:17.327Z,32.83
2023-05-30T12:09:19.810Z,32.40
2023-05-30T12:10:29.654Z,32.62
2023-05-30T12:11:31.690Z,32.93
2023-05-30T12:12:34.785Z,33.01
2023-05-30T12:13:36.984Z,33.08
2023-05-30T12:14:42.059Z,32.97
2023-05-30T12:15:44.104Z,33.02
2023-05-30T12:16:54.677Z,32.86
2023-05-30T12:17:57.118Z,32.92
2023-05-30T12:18:59.384Z,33.00
2023-05-30T12:20:02.856Z,32.75
2023-05-30T12:21:05.650Z,32.83
2023-05-30T12:22:07.838Z,32.49
2023-05-30T12:23:10.004Z,32.65
2023-05-30T12:24:12.137Z,32.61
2023-05-30T12:25:14.769Z,32.56
2023-05-30T12:26:17.935Z,32.40
2023-05-30T12:27:22.067Z,31.94
2023-05-30T12:28:24.451Z,32.42
2023-05-30T12:29:26.505Z,31.74
2023-05-30T12:30:31.118Z,32.21
2023-05-30T12:31:34.614Z,32.48
2023-05-30T12:32:36.687Z,32.52
2023-05-30T12:33:38.654Z,32.72
2023-05-30T12:34:46.887Z,32.38
2023-05-30T12:35:54.041Z,32.24
2023-05-30T12:36:56.369Z,31.78
2023-05-30T12:37:59.424Z,31.76
2023-05-30T12:39:01.333Z,31.72
2023-05-30T12:40:05.468Z,31.54
2023-05-30T12:41:07.900Z,31.45
2023-05-30T12:42:10.139Z,31.42
2023-05-30T12:43:14.107Z,31.35
2023-05-30T12:44:17.605Z,31.41
2023-05-30T12:45:20.733Z,31.67
2023-05-30T12:46:27.681Z,31.39
2023-05-30T12:47:30.118Z,31.63
2023-05-30T12:48:34.167Z,31.67
2023-05-30T12:49:36.224Z,31.97
2023-05-30T12:50:39.733Z,32.01
2023-05-30T12:51:42.808Z,31.83
2023-05-30T12:52:44.811Z,32.05
2023-05-30T12:53:46.959Z,32.24
2023-05-30T12:54:50.606Z,32.16
2023-05-30T12:55:52.572Z,32.42
2023-05-30T12:56:54.614Z,31.92
2023-05-30T12:57:56.509Z,32.40
2023-05-30T12:58:58.511Z,32.42
2023-05-30T13:00:00.524Z,32.58
2023-05-30T13:01:03.856Z,32.54
2023-05-30T13:02:07.664Z,32.60
2023-05-30T13:03:10.000Z,32.62
2023-05-30T13:04:12.407Z,32.79
2023-05-30T13:05:14.890Z,32.61
2023-05-30T13:06:16.994Z,32.51
2023-05-30T13:07:19.966Z,32.68
2023-05-30T13:08:21.890Z,32.63
2023-05-30T13:09:24.131Z,32.75
2023-05-30T13:10:26.246Z,32.71
2023-05-30T13:11:28.199Z,32.42
2023-05-30T13:12:30.598Z,31.91
2023-05-30T13:13:32.536Z,32.13
2023-05-30T13:14:38.302Z,31.94
2023-05-30T13:15:40.391Z,31.83
2023-05-30T13:16:43.411Z,31.77
2023-05-30T13:17:45.511Z,31.62
2023-05-30T13:18:48.114Z,31.54
2023-05-30T13:19:50.025Z,31.12
2023-05-30T13:20:52.292Z,30.90
2023-05-30T13:21:54.543Z,31.12
2023-05-30T13:22:57.692Z,31.21
2023-05-30T13:23:59.832Z,31.13
2023-05-30T13:25:01.922Z,31.24
2023-05-30T13:26:04.063Z,31.34
2023-05-30T13:27:06.836Z,31.38
2023-05-30T13:28:08.850Z,31.34
2023-05-30T13:29:10.889Z,31.01
2023-05-30T13:30:15.507Z,30.79
2023-05-30T13:31:17.541Z,30.51
2023-05-30T13:32:19.520Z,30.66
2023-05-30T13:33:21.562Z,30.90
2023-05-30T13:34:23.655Z,30.83
2023-05-30T13:35:25.722Z,30.61
2023-05-30T13:36:28.038Z,30.59
2023-05-30T13:37:29.945Z,30.72
2023-05-30T13:38:32.772Z,30.60
2023-05-30T13:39:34.792Z,30.45
2023-05-30T13:40:37.000Z,30.19
2023-05-30T13:41:39.566Z,30.20
2023-05-30T13:42:41.491Z,30.81
2023-05-30T13:43:44.715Z,30.49
2023-05-30T13:44:47.586Z,30.62
2023-05-30T13:45:49.968Z,30.53
2023-05-30T13:46:52.102Z,30.51
2023-05-30T13:47:54.023Z,30.59
2023-05-30T13:48:55.981Z,30.70